Time;durP1;ratioP1;P1;durP2;ratioP2;P2;SDS_P1;SDS_P2;PMS_P1;PMS_P2;Temp;Humidity;BMP_temperature;BMP_pressure;BME280_temperature;BME280_humidity;BME280_pressure;Samples;Min_cycle;Max_cycle;Signal;HPM_P1;HPM_P2
2022/01/19 00:01:18;;;;;;;27.65;12.60;;;;;;;-5.46;69.94;99852.13;5043026;28;20048;-81
2022/01/19 00:03:45;;;;;;;24.02;11.40;;;;;;;-5.51;70.49;99853.91;5076399;28;20543;-82
2022/01/19 00:06:11;;;;;;;23.10;11.95;;;;;;;-5.54;70.36;99859.13;5026504;28;20052;-82
2022/01/19 00:08:38;;;;;;;21.35;11.70;;;;;;;-5.57;70.43;99856.53;5076943;28;20414;-82
2022/01/19 00:11:04;;;;;;;23.60;11.82;;;;;;;-5.56;70.54;99860.88;5060063;28;20043;-82
2022/01/19 00:13:30;;;;;;;26.00;10.60;;;;;;;-5.51;70.40;99854.75;5045940;28;20062;-82
2022/01/19 00:15:56;;;;;;;25.00;12.45;;;;;;;-5.49;70.31;99858.22;5077195;28;20064;-82
2022/01/19 00:18:23;;;;;;;24.42;13.00;;;;;;;-5.44;70.21;99855.59;5062013;28;20050;-83
2022/01/19 00:20:49;;;;;;;23.95;11.70;;;;;;;-5.50;70.32;99863.44;5045294;28;20036;-84
2022/01/19 00:23:16;;;;;;;29.48;13.27;;;;;;;-5.46;70.12;99862.53;5062730;28;20039;-83
2022/01/19 00:25:43;;;;;;;23.05;11.25;;;;;;;-5.47;70.02;99860.81;5079321;28;20040;-84
2022/01/19 00:28:09;;;;;;;20.35;10.90;;;;;;;-5.45;70.04;99874.72;5044465;28;20040;-85
2022/01/19 00:30:36;;;;;;;17.58;8.65;;;;;;;-5.46;69.85;99867.75;5076922;28;20108;-85
2022/01/19 00:33:02;;;;;;;22.25;11.75;;;;;;;-5.42;69.76;99866.84;5060175;28;20043;-84
2022/01/19 00:35:28;;;;;;;21.10;11.10;;;;;;;-5.40;69.95;99868.56;5093682;28;20047;-87
2022/01/19 00:37:53;;;;;;;18.55;9.10;;;;;;;-5.29;69.58;99865.03;5093654;28;20051;-86
2022/01/19 00:40:20;;;;;;;15.02;8.90;;;;;;;-5.23;69.02;99872.78;5093057;28;20459;-83
2022/01/19 00:42:46;;;;;;;22.20;11.38;;;;;;;-5.33;69.12;99863.31;5076800;28;20043;-85
2022/01/19 00:45:13;;;;;;;21.42;11.05;;;;;;;-5.38;69.01;99855.53;5077326;28;20121;-84
2022/01/19 00:47:41;;;;;;;20.48;10.15;;;;;;;-5.26;69.28;99865.88;5045147;28;20052;-82
2022/01/19 00:50:08;;;;;;;20.70;11.27;;;;;;;-5.21;68.97;99869.31;5096699;28;20040;-82
2022/01/19 00:52:37;;;;;;;17.73;9.15;;;;;;;-5.28;68.74;99859.78;5062548;28;20039;-86
2022/01/19 00:55:04;;;;;;;15.90;8.73;;;;;;;-5.26;68.45;99854.59;5097842;28;20135;-84
2022/01/19 00:57:30;;;;;;;17.00;9.90;;;;;;;-5.28;68.62;99861.53;5081405;28;20058;-84
2022/01/19 00:59:56;;;;;;;26.00;9.57;;;;;;;-5.36;68.58;99859.00;5108776;28;20047;-82
2022/01/19 01:02:22;;;;;;;16.05;8.80;;;;;;;-5.53;68.56;99863.44;5100205;28;20048;-82
2022/01/19 01:04:48;;;;;;;18.10;10.02;;;;;;;-5.55;68.72;99858.25;5117375;28;20016;-83
2022/01/19 01:07:14;;;;;;;11.63;7.55;;;;;;;-5.46;68.90;99859.94;5112650;28;20069;-83
2022/01/19 01:09:40;;;;;;;18.73;10.27;;;;;;;-5.49;68.86;99862.53;5091577;28;20056;-83
2022/01/19 01:12:20;;;;;;;17.13;10.93;;;;;;;-5.51;68.81;99853.91;5098364;28;20062;-82
2022/01/19 01:20:16;;;;;;;18.65;9.73;;;;;;;-5.48;68.48;99849.53;5092627;28;20044;-82
2022/01/19 01:22:42;;;;;;;17.20;9.38;;;;;;;-5.58;68.57;99837.44;5093408;28;20479;-82
2022/01/19 01:25:12;;;;;;;17.67;10.32;;;;;;;-5.49;68.47;99846.91;5076335;28;20442;-82
2022/01/19 01:27:38;;;;;;;16.83;9.60;;;;;;;-5.46;68.54;99859.94;5092210;28;20044;-84
2022/01/19 01:30:06;;;;;;;16.35;9.02;;;;;;;-5.43;68.49;99857.31;5092106;28;20406;-83
2022/01/19 01:32:32;;;;;;;20.02;10.82;;;;;;;-5.38;68.76;99865.94;5042475;28;20048;-84
2022/01/19 01:34:58;;;;;;;21.00;11.48;;;;;;;-5.36;68.39;99866.81;5042017;28;20040;-82
2022/01/19 01:37:24;;;;;;;26.92;12.38;;;;;;;-5.42;68.63;99874.66;5075199;28;20086;-83
2022/01/19 01:39:51;;;;;;;21.95;11.80;;;;;;;-5.38;68.76;99873.75;5091948;28;20050;-83
2022/01/19 01:42:18;;;;;;;17.60;9.65;;;;;;;-5.40;68.48;99879.00;5075509;28;20032;-82
2022/01/19 01:44:47;;;;;;;16.08;9.50;;;;;;;-5.46;68.50;99884.22;5058476;28;20495;-83
2022/01/19 01:47:16;;;;;;;17.85;8.32;;;;;;;-5.48;68.74;99890.34;5075700;28;20078;-84
2022/01/19 01:53:25;;;;;;;18.00;9.13;;;;;;;-5.50;68.61;99886.88;5058315;28;20054;-83
2022/01/19 01:55:20;;;;;;;15.57;6.78;;;;;;;-5.70;69.55;99890.47;5064372;28;20082;-82
2022/01/19 01:57:47;;;;;;;14.85;8.93;;;;;;;-5.72;69.83;99879.19;5091967;28;20044;-84
2022/01/19 02:00:16;;;;;;;14.20;8.25;;;;;;;-5.58;69.33;99888.66;5045134;28;20036;-83
2022/01/19 02:02:46;;;;;;;12.45;7.75;;;;;;;-5.58;69.46;99884.31;5095258;28;20148;-82
2022/01/19 02:05:14;;;;;;;15.13;8.07;;;;;;;-5.74;70.03;99882.69;5077354;28;20048;-84
2022/01/19 02:10:31;;;;;;;13.77;7.10;;;;;;;-5.73;69.97;99884.41;5076337;28;20047;-81
2022/01/19 02:23:58;;;;;;;13.25;6.88;;;;;;;-5.94;70.98;99885.41;5063550;28;20036;-85
2022/01/19 02:26:46;;;;;;;10.25;6.82;;;;;;;-5.84;71.36;99892.28;5075074;28;20502;-83
2022/01/19 02:30:06;;;;;;;13.65;7.03;;;;;;;-5.84;70.91;99889.66;5077674;28;20085;-84
2022/01/19 02:40:28;;;;;;;12.43;8.48;;;;;;;-5.80;70.73;99899.19;5077429;28;20101;-85
2022/01/19 02:43:08;;;;;;;8.02;5.60;;;;;;;-5.69;70.95;99886.97;5058446;28;20047;-86
2022/01/19 02:51:05;;;;;;;20.38;10.02;;;;;;;-5.55;70.29;99894.72;5091892;28;20146;-83
2022/01/19 02:53:35;;;;;;;24.25;13.10;;;;;;;-5.51;70.34;99890.38;5092020;28;20572;-82
2022/01/19 02:56:07;;;;;;;34.50;16.35;;;;;;;-5.45;70.19;99887.72;5075251;28;20047;-83
2022/01/19 02:58:38;;;;;;;33.30;14.02;;;;;;;-5.36;70.25;99887.66;5043074;28;20039;-82
2022/01/19 03:09:22;;;;;;;36.40;15.85;;;;;;;-5.44;69.63;99884.25;5081976;28;20055;-83
2022/01/19 03:11:49;;;;;;;28.63;13.40;;;;;;;-5.43;69.44;99873.81;5078423;28;20427;-82
2022/01/19 03:14:15;;;;;;;26.27;12.07;;;;;;;-5.43;69.55;99883.34;5044687;28;20044;-82
2022/01/19 03:16:42;;;;;;;28.92;13.50;;;;;;;-5.47;69.75;99866.88;5094517;28;20050;-82
2022/01/19 03:19:10;;;;;;;28.42;11.82;;;;;;;-5.46;69.67;99878.16;5044636;28;20048;-83
2022/01/19 03:21:36;;;;;;;24.35;13.40;;;;;;;-5.48;69.63;99872.97;5045376;28;20057;-83
2022/01/19 03:24:06;;;;;;;24.50;11.70;;;;;;;-5.50;69.74;99868.63;5061709;28;20067;-86
2022/01/19 03:26:32;;;;;;;25.45;13.85;;;;;;;-5.53;69.78;99866.91;5045705;28;20040;-83
2022/01/19 03:29:13;;;;;;;33.80;14.50;;;;;;;-5.53;70.12;99863.44;5065468;28;20064;-82
2022/01/19 03:31:39;;;;;;;32.38;13.85;;;;;;;-5.54;70.14;99859.13;5094547;28;20048;-84
2022/01/19 03:34:06;;;;;;;30.52;13.60;;;;;;;-5.54;70.22;99874.75;5061298;28;20039;-83
2022/01/19 03:36:34;;;;;;;35.05;14.35;;;;;;;-5.51;70.26;99870.38;5078053;28;20083;-83
2022/01/19 03:39:00;;;;;;;31.40;15.40;;;;;;;-5.44;70.18;99872.06;5044400;28;20499;-84
2022/01/19 03:41:26;;;;;;;29.27;13.80;;;;;;;-5.48;70.05;99870.38;5094131;28;20506;-84
2022/01/19 03:43:52;;;;;;;38.13;16.30;;;;;;;-5.45;69.98;99879.91;5044422;28;20048;-84
2022/01/19 03:46:21;;;;;;;38.00;15.02;;;;;;;-5.50;70.40;99876.47;5077678;28;20055;-82
2022/01/19 03:49:11;;;;;;;34.40;16.80;;;;;;;-5.50;70.16;99872.09;5094608;28;20044;-85
2022/01/19 03:51:36;;;;;;;54.97;19.27;;;;;;;-5.49;70.11;99873.84;5063644;28;20509;-86
2022/01/19 03:54:05;;;;;;;42.75;19.25;;;;;;;-5.51;70.27;99865.19;5077923;28;20422;-85
2022/01/19 03:56:33;;;;;;;48.35;20.15;;;;;;;-5.65;70.54;99861.78;5045485;28;20047;-83
2022/01/19 03:58:59;;;;;;;42.78;18.40;;;;;;;-5.70;71.04;99861.81;5095351;28;20044;-84
2022/01/19 04:01:26;;;;;;;43.25;18.77;;;;;;;-5.57;70.80;99870.41;5060711;28;20047;-83
2022/01/19 04:06:55;;;;;;;34.30;14.95;;;;;;;-5.56;70.25;99876.50;5043557;28;20048;-81
2022/01/19 04:09:22;;;;;;;35.97;14.75;;;;;;;-5.58;70.74;99883.47;5077178;28;20490;-83
2022/01/19 04:11:49;;;;;;;40.75;16.52;;;;;;;-5.67;70.79;99885.25;5095080;28;20138;-81
2022/01/19 04:14:22;;;;;;;26.95;11.73;;;;;;;-5.73;70.65;99884.41;5060152;28;20403;-85
2022/01/19 04:17:09;;;;;;;34.17;14.73;;;;;;;-5.65;70.58;99883.47;5076002;28;20047;-81
2022/01/19 04:19:47;;;;;;;32.72;13.85;;;;;;;-5.64;70.72;99880.03;5093653;28;20059;-81
2022/01/19 04:22:23;;;;;;;32.53;13.57;;;;;;;-5.71;70.74;99893.94;5077152;28;20143;-79
2022/01/19 04:24:52;;;;;;;36.70;15.00;;;;;;;-5.65;70.45;99899.09;5076247;28;20043;-79
2022/01/19 04:30:02;;;;;;;28.30;13.10;;;;;;;-5.57;70.36;99900.81;5065226;28;20573;-79
2022/01/19 04:32:44;;;;;;;34.00;13.00;;;;;;;-5.62;70.50;99901.69;5064765;28;20047;-78
2022/01/19 04:35:13;;;;;;;26.70;11.95;;;;;;;-5.47;70.00;99907.69;5077504;28;20483;-82
2022/01/19 05:02:25;;;;;;;42.05;11.75;;;;;;;-5.37;69.37;99904.16;5079880;28;20438;-80
2022/01/19 05:05:15;;;;;;;20.63;9.70;;;;;;;-5.25;69.38;99904.09;5095066;28;20078;-77
2022/01/19 05:07:54;;;;;;;21.92;10.55;;;;;;;-5.18;69.00;99900.56;5055271;28;20094;-77
2022/01/19 05:13:27;;;;;;;25.02;11.85;;;;;;;-4.90;69.30;99900.31;5090515;28;20040;-77
2022/01/19 05:15:53;;;;;;;24.73;12.73;;;;;;;-4.79;68.52;99900.25;5057206;28;20098;-79
2022/01/19 05:18:21;;;;;;;27.20;12.68;;;;;;;-4.63;68.12;99899.22;5056001;28;20571;-81
2022/01/19 05:20:47;;;;;;;27.13;14.13;;;;;;;-4.59;67.64;99910.47;5038811;28;20037;-78
2022/01/19 05:23:43;;;;;;;35.28;14.80;;;;;;;-4.45;67.40;99900.78;5040527;28;20151;-78
2022/01/19 05:26:09;;;;;;;31.17;15.02;;;;;;;-4.43;66.75;99899.03;5038688;28;20067;-78
2022/01/19 05:28:38;;;;;;;31.05;13.60;;;;;;;-4.53;66.65;99886.94;5070754;28;20044;-79
2022/01/19 05:31:04;;;;;;;29.33;13.65;;;;;;;-4.37;66.74;99900.69;5039106;28;20040;-79
2022/01/19 05:33:31;;;;;;;32.03;14.50;;;;;;;-4.36;66.05;99900.69;5055713;28;20059;-77
2022/01/19 05:35:57;;;;;;;30.67;14.57;;;;;;;-4.50;66.53;99902.56;5022442;28;20032;-79
2022/01/19 05:38:29;;;;;;;40.15;14.52;;;;;;;-4.33;66.67;99908.47;5074110;28;20060;-76
2022/01/19 05:41:13;;;;;;;36.67;16.02;;;;;;;-4.21;66.21;99897.91;5091320;28;20109;-79
2022/01/19 05:43:41;;;;;;;38.78;16.50;;;;;;;-4.18;65.86;99908.28;5058038;28;20055;-81
2022/01/19 05:46:08;;;;;;;54.55;21.20;;;;;;;-4.27;65.54;99908.41;5073540;28;20041;-79
2022/01/19 05:48:35;;;;;;;46.58;21.70;;;;;;;-4.43;66.10;99891.19;5040161;28;20448;-79
2022/01/19 05:51:01;;;;;;;46.08;18.52;;;;;;;-4.27;66.14;99912.78;5071665;28;20159;-78
2022/01/19 05:53:30;;;;;;;36.78;14.18;;;;;;;-4.44;65.55;99900.78;5072049;28;20036;-79
2022/01/19 05:55:56;;;;;;;30.27;13.60;;;;;;;-4.32;65.91;99919.81;5072252;28;20052;-80
2022/01/19 05:58:23;;;;;;;28.70;12.70;;;;;;;-4.27;65.42;99916.25;5070985;28;20055;-79
2022/01/19 06:00:53;;;;;;;31.55;14.45;;;;;;;-4.13;65.55;99920.47;5071662;28;20056;-84
2022/01/19 06:03:19;;;;;;;24.55;13.05;;;;;;;-4.18;65.18;99917.88;5071614;28;20431;-80
2022/01/19 06:06:09;;;;;;;26.15;11.95;;;;;;;-4.09;65.13;99911.72;5070298;28;20040;-81
2022/01/19 06:09:09;;;;;;;24.52;11.88;;;;;;;-4.06;64.67;99901.22;5053139;28;20057;-81
2022/01/19 06:11:35;;;;;;;27.50;11.00;;;;;;;-3.93;64.96;99905.41;5071713;28;20052;-81
2022/01/19 06:14:03;;;;;;;16.08;8.90;;;;;;;-3.92;64.41;99907.13;5055338;28;20051;-79
2022/01/19 06:16:29;;;;;;;22.10;11.48;;;;;;;-3.98;64.14;99912.44;5088206;28;20470;-80
2022/01/19 06:18:55;;;;;;;21.58;10.38;;;;;;;-4.00;64.26;99916.81;5038086;28;20068;-77
2022/01/19 06:21:22;;;;;;;19.80;10.38;;;;;;;-3.90;64.30;99928.88;5071150;28;20044;-78
2022/01/19 06:23:50;;;;;;;23.95;9.50;;;;;;;-3.69;64.78;99928.59;5054950;28;20071;-81
2022/01/19 06:26:19;;;;;;;14.88;7.65;;;;;;;-3.60;63.33;99921.56;5055250;28;20048;-80
2022/01/19 06:28:45;;;;;;;17.70;9.57;;;;;;;-3.36;63.05;99921.19;5054371;28;20071;-79
2022/01/19 06:31:12;;;;;;;20.23;8.57;;;;;;;-3.39;62.65;99918.63;5071351;28;20044;-78
2022/01/19 06:33:39;;;;;;;20.45;11.18;;;;;;;-3.37;62.90;99910.78;5038506;28;20048;-81
2022/01/19 06:36:08;;;;;;;21.90;10.75;;;;;;;-3.21;62.60;99902.66;5072839;28;20419;-81
2022/01/19 06:39:04;;;;;;;19.60;10.68;;;;;;;-3.14;61.88;99923.50;5046385;28;20513;-79
2022/01/19 06:41:39;;;;;;;18.05;9.52;;;;;;;-3.35;61.61;99909.84;5074742;28;20052;-80
2022/01/19 06:44:07;;;;;;;18.73;9.52;;;;;;;-3.17;62.04;99911.31;5075871;28;20041;-81
2022/01/19 06:46:33;;;;;;;17.83;9.32;;;;;;;-3.21;61.33;99902.66;5058778;28;20044;-79
2022/01/19 06:48:59;;;;;;;16.15;9.77;;;;;;;-3.21;61.45;99909.66;5092157;28;20102;-81
2022/01/19 06:51:25;;;;;;;17.20;9.20;;;;;;;-2.99;61.81;99920.66;5041776;28;20037;-80
2022/01/19 06:53:55;;;;;;;22.40;9.23;;;;;;;-2.91;61.12;99918.78;5092368;28;20478;-79
2022/01/19 06:56:27;;;;;;;20.88;10.05;;;;;;;-2.76;61.29;99908.06;5093092;28;20396;-80
2022/01/19 06:59:01;;;;;;;20.92;10.65;;;;;;;-2.52;60.80;99921.59;5047576;28;20395;-78
2022/01/19 07:01:36;;;;;;;21.40;10.98;;;;;;;-2.51;59.71;99924.22;5073432;28;20044;-81
2022/01/19 07:04:25;;;;;;;15.57;7.88;;;;;;;-2.64;59.24;99916.59;5074449;28;20040;-80
2022/01/19 07:06:51;;;;;;;20.48;10.77;;;;;;;-2.76;59.35;99928.97;5057690;28;20044;-80
2022/01/19 07:09:28;;;;;;;21.25;9.25;;;;;;;-2.76;60.12;99928.97;5075212;28;20142;-80
2022/01/19 07:11:56;;;;;;;18.67;9.70;;;;;;;-2.60;59.92;99915.63;5041606;28;20044;-79
2022/01/19 07:14:22;;;;;;;21.98;10.35;;;;;;;-2.43;59.60;99913.59;5057850;28;20495;-80
2022/01/19 07:16:51;;;;;;;19.85;10.93;;;;;;;-2.33;58.75;99912.53;5058298;28;20071;-81
2022/01/19 07:19:17;;;;;;;15.50;9.43;;;;;;;-2.43;58.96;99921.44;5041237;28;20499;-80
2022/01/19 07:21:45;;;;;;;20.25;9.93;;;;;;;-2.32;58.76;99923.88;5025166;28;20036;-80
2022/01/19 07:24:12;;;;;;;19.30;9.73;;;;;;;-2.40;58.88;99921.41;5041083;28;20415;-79
2022/01/19 07:26:39;;;;;;;17.73;9.32;;;;;;;-2.41;58.58;99914.41;5058005;28;20048;-79
2022/01/19 07:29:07;;;;;;;18.60;9.10;;;;;;;-2.57;59.23;99924.31;5058177;28;20522;-79
2022/01/19 07:31:33;;;;;;;13.18;7.72;;;;;;;-2.56;59.27;99925.16;5073793;28;20102;-81
2022/01/19 07:34:04;;;;;;;11.13;6.85;;;;;;;-2.43;59.30;99929.31;5092016;28;20051;-80
2022/01/19 07:36:31;;;;;;;8.85;6.15;;;;;;;-2.48;59.25;99926.78;5057582;28;20137;-80
2022/01/19 07:38:57;;;;;;;13.93;5.90;;;;;;;-2.28;58.82;99926.41;5057370;28;20507;-80
2022/01/19 07:41:23;;;;;;;11.43;6.72;;;;;;;-2.35;58.69;99914.31;5073563;28;20044;-79
2022/01/19 07:43:52;;;;;;;15.05;6.75;;;;;;;-2.45;58.28;99912.75;5041044;28;20424;-79
2022/01/19 07:46:24;;;;;;;15.65;7.68;;;;;;;-2.54;58.94;99933.88;5042188;28;20036;-79
2022/01/19 07:49:02;;;;;;;12.98;7.97;;;;;;;-2.55;59.20;99926.91;5044539;28;20055;-79
2022/01/19 07:51:40;;;;;;;12.50;7.15;;;;;;;-2.62;59.24;99917.44;5091213;28;20499;-81
2022/01/19 07:54:16;;;;;;;20.38;9.70;;;;;;;-2.68;59.61;99915.78;5089204;28;20530;-80
2022/01/19 07:57:08;;;;;;;14.45;8.55;;;;;;;-2.57;59.40;99923.44;5073358;28;20048;-81
2022/01/19 07:59:53;;;;;;;18.38;10.00;;;;;;;-2.67;59.92;99935.84;5073938;28;20082;-80
2022/01/19 08:02:19;;;;;;;26.13;12.73;;;;;;;-2.51;59.66;99934.69;5073719;28;20052;-79
2022/01/19 08:05:04;;;;;;;23.63;11.48;;;;;;;-2.46;59.27;99938.06;5074148;28;20135;-79
2022/01/19 08:07:33;;;;;;;21.13;10.98;;;;;;;-2.57;59.18;99945.25;5073688;28;20044;-82
2022/01/19 08:10:00;;;;;;;25.13;11.05;;;;;;;-2.62;58.77;99936.63;5040982;28;20040;-79
2022/01/19 08:12:28;;;;;;;20.80;10.87;;;;;;;-2.69;59.06;99940.22;5057084;28;20055;-79
2022/01/19 08:14:58;;;;;;;25.83;11.98;;;;;;;-2.51;59.57;99939.06;5056521;28;20070;-80
2022/01/19 08:17:29;;;;;;;22.23;10.88;;;;;;;-2.60;58.85;99931.34;5042579;28;20499;-79
2022/01/19 08:19:56;;;;;;;29.25;11.52;;;;;;;-2.72;59.22;99953.34;5039978;28;20068;-80
2022/01/19 08:22:22;;;;;;;29.88;12.80;;;;;;;-2.80;59.77;99937.78;5073466;28;20051;-80
2022/01/19 08:25:11;;;;;;;27.05;12.23;;;;;;;-2.65;59.96;99934.03;5076755;28;20060;-80
2022/01/19 08:27:37;;;;;;;31.48;11.70;;;;;;;-2.66;60.02;99934.09;5047076;28;20044;-80
2022/01/19 08:30:07;;;;;;;22.02;10.25;;;;;;;-2.73;60.02;99949.88;5078629;28;20143;-81
2022/01/19 08:32:35;;;;;;;23.45;10.82;;;;;;;-2.55;59.86;99958.31;5027658;28;20094;-80
2022/01/19 08:35:21;;;;;;;22.42;10.80;;;;;;;-2.78;60.39;99967.41;5045236;28;20056;-79
2022/01/19 08:38:06;;;;;;;23.20;11.15;;;;;;;-2.73;60.97;99952.50;5073255;28;20044;-80
2022/01/19 08:40:41;;;;;;;23.42;11.05;;;;;;;-2.77;61.33;99947.34;5057760;28;20045;-81
2022/01/19 08:43:16;;;;;;;21.83;10.70;;;;;;;-2.57;61.13;99952.22;5090887;28;20457;-80
2022/01/19 08:45:43;;;;;;;23.40;11.43;;;;;;;-2.52;61.04;99942.53;5072683;28;20455;-80
2022/01/19 08:48:10;;;;;;;18.80;11.15;;;;;;;-2.46;61.28;99947.69;5073191;28;20554;-81
2022/01/19 08:50:48;;;;;;;31.63;11.40;;;;;;;-2.56;61.30;99946.09;5072030;28;20051;-80
2022/01/19 08:53:27;;;;;;;16.60;8.63;;;;;;;-2.54;61.05;99939.97;5091141;28;20048;-79
2022/01/19 08:56:14;;;;;;;11.82;7.22;;;;;;;-2.58;61.13;99954.00;5079693;28;20095;-80
2022/01/19 08:58:41;;;;;;;13.75;7.65;;;;;;;-2.74;61.67;99937.69;5056083;28;20075;-80
2022/01/19 09:01:07;;;;;;;10.40;6.25;;;;;;;-2.82;61.71;99949.16;5072240;28;20041;-80
2022/01/19 09:03:33;;;;;;;14.05;7.30;;;;;;;-2.83;61.37;99973.59;5039554;28;20076;-80
2022/01/19 09:05:59;;;;;;;13.52;6.28;;;;;;;-2.76;61.28;99960.38;5075728;28;20048;-80
2022/01/19 09:08:25;;;;;;;13.45;6.85;;;;;;;-2.78;61.69;99936.00;5042628;28;20071;-80
2022/01/19 09:10:53;;;;;;;17.25;7.20;;;;;;;-2.77;61.18;99950.81;5051872;28;20067;-78
2022/01/19 09:13:19;;;;;;;11.80;7.28;;;;;;;-2.77;61.44;99948.19;5074687;28;20428;-80
2022/01/19 09:15:45;;;;;;;12.18;7.40;;;;;;;-2.59;61.13;99946.19;5109439;28;20040;-82
2022/01/19 09:18:12;;;;;;;13.02;6.40;;;;;;;-2.56;62.85;99949.56;5069850;28;20048;-86
2022/01/19 09:20:37;;;;;;;12.65;6.40;;;;;;;-1.82;70.58;99949.09;5058867;28;20044;-90
2022/01/19 09:23:03;;;;;;;24.20;7.75;;;;;;;-1.19;68.24;99946.91;5077924;28;20068;-79
2022/01/19 09:25:30;;;;;;;12.77;6.85;;;;;;;-0.48;61.05;99960.06;5039863;28;20135;-79
2022/01/19 09:27:56;;;;;;;10.20;6.05;;;;;;;-1.18;56.84;99952.09;5056077;28;20052;-83
2022/01/19 09:30:24;;;;;;;19.00;8.27;;;;;;;-1.82;57.57;99954.34;5073881;28;20503;-81
2022/01/19 09:33:11;;;;;;;12.85;6.45;;;;;;;-2.32;58.60;99977.09;5056246;28;20102;-78
2022/01/19 09:38:26;;;;;;;20.23;6.57;;;;;;;-2.27;59.95;99959.53;5071991;28;20052;-80
2022/01/19 09:40:52;;;;;;;23.00;8.07;;;;;;;-2.45;59.70;99965.09;5071939;28;20051;-81
2022/01/19 09:43:22;;;;;;;16.90;7.75;;;;;;;-2.65;60.13;99960.22;5055349;28;20472;-78
2022/01/19 09:45:52;;;;;;;11.25;6.70;;;;;;;-2.88;60.89;99975.41;5056116;28;20431;-83
2022/01/19 09:48:18;;;;;;;16.27;7.75;;;;;;;-2.85;60.84;99973.63;5055588;28;20044;-79
2022/01/19 09:50:44;;;;;;;14.27;8.18;;;;;;;-2.86;61.34;99971.88;5054960;28;20394;-80
2022/01/19 09:53:11;;;;;;;10.30;5.88;;;;;;;-2.75;60.81;99966.47;5071369;28;20152;-77
2022/01/19 09:55:44;;;;;;;14.52;8.60;;;;;;;-2.75;60.94;99961.25;5071545;28;20127;-81
2022/01/19 09:58:10;;;;;;;15.35;7.40;;;;;;;-2.60;60.91;99967.97;5023772;28;20068;-79
2022/01/19 10:00:36;;;;;;;15.27;7.57;;;;;;;-2.52;60.52;99964.38;5054962;28;20136;-78
2022/01/19 10:03:16;;;;;;;10.50;6.32;;;;;;;-2.60;60.26;99971.47;5038358;28;20049;-80
2022/01/19 10:06:08;;;;;;;10.57;5.40;;;;;;;-2.53;59.93;99967.00;5038311;28;20135;-78
2022/01/19 10:08:42;;;;;;;14.25;7.07;;;;;;;-2.57;60.60;99981.88;5040224;28;20052;-78
2022/01/19 10:11:28;;;;;;;28.63;7.13;;;;;;;-2.48;60.27;99975.66;5054788;28;20507;-79
2022/01/19 10:17:05;;;;;;;11.32;6.40;;;;;;;-2.41;60.04;99961.53;5075576;28;20515;-79
2022/01/19 10:19:50;;;;;;;10.73;6.63;;;;;;;-2.39;59.62;99978.09;5041944;28;20040;-78
2022/01/19 10:22:26;;;;;;;11.00;6.75;;;;;;;-2.46;60.04;99976.47;5074674;28;20048;-81
2022/01/19 10:25:00;;;;;;;14.20;6.30;;;;;;;-2.59;60.16;99990.66;5059075;28;20079;-84
2022/01/19 10:27:36;;;;;;;13.20;6.18;;;;;;;-2.84;60.30;99977.97;5075160;28;20499;-79
2022/01/19 10:30:02;;;;;;;9.98;5.32;;;;;;;-2.82;61.08;99980.53;5058067;28;20080;-77
2022/01/19 10:32:40;;;;;;;15.63;5.93;;;;;;;-2.97;60.98;99986.88;5074893;28;20503;-80
2022/01/19 10:35:19;;;;;;;20.08;7.53;;;;;;;-3.21;61.82;99975.88;5059348;28;20534;-82
2022/01/19 10:37:47;;;;;;;15.50;7.75;;;;;;;-3.29;62.46;99984.72;5057973;28;20032;-81
2022/01/19 10:40:20;;;;;;;11.52;6.20;;;;;;;-3.24;62.62;99994.22;5074211;28;20048;-78
2022/01/19 10:42:47;;;;;;;16.52;7.38;;;;;;;-3.21;62.54;99990.72;5041559;28;20569;-79
2022/01/19 10:45:13;;;;;;;17.88;6.57;;;;;;;-3.11;62.41;100009.75;5057765;28;20076;-81
2022/01/19 10:47:45;;;;;;;8.35;4.57;;;;;;;-3.11;62.29;100017.59;5075820;28;20045;-78
2022/01/19 10:50:19;;;;;;;9.48;6.13;;;;;;;-3.14;61.81;100018.50;5057221;28;20928;-78
2022/01/19 10:52:46;;;;;;;13.98;6.10;;;;;;;-3.14;62.62;100028.09;5058007;28;20131;-79
2022/01/19 10:55:24;;;;;;;11.63;5.55;;;;;;;-3.16;62.10;100022.88;5041315;28;20044;-81
2022/01/19 10:57:50;;;;;;;13.02;6.20;;;;;;;-3.01;62.48;100030.53;5027219;28;20036;-80
2022/01/19 11:00:31;;;;;;;12.15;6.03;;;;;;;-3.04;62.23;100029.72;5057777;28;20052;-78
2022/01/19 11:02:59;;;;;;;12.82;6.50;;;;;;;-2.82;62.02;100028.53;5025049;28;20076;-75
2022/01/19 11:05:57;;;;;;;11.18;5.85;;;;;;;-2.89;61.23;100028.63;5060024;28;20484;-82
2022/01/19 11:08:26;;;;;;;12.00;6.22;;;;;;;-3.11;61.47;100020.22;5058377;28;20046;-82
2022/01/19 11:10:53;;;;;;;10.48;6.53;;;;;;;-3.19;61.64;100022.94;5058244;28;20131;-80
2022/01/19 11:13:40;;;;;;;9.40;5.78;;;;;;;-3.29;61.83;100026.56;5057456;28;20047;-81
2022/01/19 11:16:06;;;;;;;10.82;5.90;;;;;;;-3.46;62.47;100013.69;5075900;28;20041;-78
2022/01/19 11:18:35;;;;;;;10.45;6.28;;;;;;;-3.58;62.54;100025.16;5074810;28;20119;-81
2022/01/19 11:21:03;;;;;;;9.48;4.82;;;;;;;-3.52;62.43;100016.38;5091203;28;20059;-87
2022/01/19 11:23:47;;;;;;;11.02;6.22;;;;;;;-3.81;63.65;100035.00;5069769;28;20044;-86
2022/01/19 11:26:16;;;;;;;13.85;6.78;;;;;;;-4.00;64.00;100021.25;5057307;28;20123;-92
2022/01/19 11:28:46;;;;;;;12.90;6.45;;;;;;;-3.95;64.48;100042.97;5077253;28;20036;-88
2022/01/19 11:31:19;;;;;;;10.43;6.40;;;;;;;-3.98;64.31;100035.19;5059265;28;20083;-87
2022/01/19 11:33:51;;;;;;;14.20;6.35;;;;;;;-3.98;64.54;100020.38;5074198;28;20463;-86
2022/01/19 11:36:25;;;;;;;9.43;5.85;;;;;;;-3.86;64.00;100024.59;5058713;28;20543;-87
2022/01/19 11:39:12;;;;;;;11.20;6.40;;;;;;;-3.96;64.32;100018.59;5073857;28;20045;-84
2022/01/19 11:41:54;;;;;;;14.80;7.32;;;;;;;-3.97;64.26;100029.06;5056794;28;20463;-85
2022/01/19 11:44:30;;;;;;;12.80;6.85;;;;;;;-4.12;64.56;100026.63;5092775;28;20045;-86
2022/01/19 11:47:16;;;;;;;14.00;6.00;;;;;;;-4.13;65.01;100024.91;5060243;28;20041;-86
2022/01/19 11:49:54;;;;;;;11.65;5.30;;;;;;;-4.25;64.87;100031.97;5060169;28;20426;-85
2022/01/19 11:52:25;;;;;;;13.23;5.72;;;;;;;-4.41;65.54;100030.34;5079608;28;20044;-86
2022/01/19 11:54:51;;;;;;;17.10;7.38;;;;;;;-4.37;65.63;100029.44;5058000;28;20048;-87
2022/01/19 11:57:26;;;;;;;13.73;5.95;;;;;;;-4.53;66.04;100028.69;5057625;28;20033;-87
2022/01/19 12:00:12;;;;;;;13.93;7.25;;;;;;;-4.54;66.28;100033.94;5075154;28;20040;-83
2022/01/19 12:02:44;;;;;;;11.80;7.20;;;;;;;-4.56;66.32;100041.75;5094666;28;20037;-88
2022/01/19 12:05:11;;;;;;;10.65;5.57;;;;;;;-4.45;66.10;100039.94;5075625;28;20064;-86
2022/01/19 12:07:40;;;;;;;13.80;6.70;;;;;;;-4.52;65.98;100035.63;5057095;28;20049;-84
2022/01/19 12:10:07;;;;;;;;;;;;;;;-4.58;66.27;100034.84;5057629;28;20067;-85
2022/01/19 12:12:39;;;;;;;18.02;6.78;;;;;;;-4.75;66.71;100021.91;5056668;28;19927;-84
2022/01/19 12:15:08;;;;;;;11.93;6.50;;;;;;;-4.72;66.36;100025.38;5073713;28;20144;-84
2022/01/19 12:18:00;;;;;;;12.20;6.82;;;;;;;-4.73;66.48;100028.00;5073342;28;20135;-84
2022/01/19 12:20:45;;;;;;;14.73;5.97;;;;;;;-4.88;66.86;100044.59;5057828;28;20048;-86
2022/01/19 12:23:27;;;;;;;10.50;6.00;;;;;;;-4.93;66.85;100041.13;5073177;28;20079;-85
2022/01/19 12:25:57;;;;;;;14.80;5.55;;;;;;;-5.06;67.42;100047.31;5067996;28;20055;-84
2022/01/19 12:28:41;;;;;;;;;;;;;;;-4.98;67.59;100049.00;5090439;28;20044;-84
2022/01/19 12:31:26;;;;;;;13.13;7.10;;;;;;;-5.07;67.72;100048.19;5089725;28;20291;-86
2022/01/19 12:34:04;;;;;;;13.13;6.90;;;;;;;-5.03;67.76;100049.91;5056343;28;20127;-85
2022/01/19 12:36:54;;;;;;;11.55;6.80;;;;;;;-5.08;67.68;100041.22;5056443;28;20055;-86
2022/01/19 12:39:29;;;;;;;;;;;;;;;-5.09;68.17;100047.31;5073499;28;20052;-83
2022/01/19 12:42:00;;;;;;;12.15;6.40;;;;;;;-5.19;68.41;100050.00;5088253;28;19920;-83
2022/01/19 12:44:35;;;;;;;16.38;8.00;;;;;;;-5.15;68.22;100054.31;5070666;28;20102;-84
2022/01/19 12:47:25;;;;;;;16.35;8.07;;;;;;;-5.13;68.25;100054.28;5095551;28;20045;-85
2022/01/19 12:49:57;;;;;;;19.42;8.95;;;;;;;-5.07;69.97;100054.28;5059612;28;20052;-79
2022/01/19 12:52:26;;;;;;;15.10;7.45;;;;;;;-5.00;68.73;100055.09;5081451;28;20048;-75
2022/01/19 12:54:52;;;;;;;17.00;8.50;;;;;;;-5.00;68.43;100057.69;5080936;28;20415;-80
2022/01/19 12:57:19;;;;;;;10.48;6.10;;;;;;;-5.15;68.33;100053.47;5067276;28;20050;-82
2022/01/19 12:59:51;;;;;;;13.57;7.53;;;;;;;-5.08;68.04;100067.31;5058497;28;20044;-79
2022/01/19 13:02:18;;;;;;;16.33;8.68;;;;;;;-5.16;67.93;100060.38;5041457;28;20574;-82
2022/01/19 13:04:46;;;;;;;19.55;8.40;;;;;;;-5.13;68.26;100059.50;5058641;28;20047;-81